createdAt,value
2017-09-21T00:01:17.486Z,12.30
2017-09-21T00:03:45.107Z,12.30
2017-09-21T00:06:13.474Z,12.30
2017-09-21T00:08:41.894Z,12.30
2017-09-21T00:11:09.499Z,12.30
2017-09-21T00:13:37.095Z,12.30
2017-09-21T00:16:04.898Z,12.30
2017-09-21T00:18:32.508Z,12.30
2017-09-21T00:21:00.874Z,12.40
2017-09-21T00:23:29.304Z,12.40
2017-09-21T00:25:56.910Z,12.40
2017-09-21T00:28:24.510Z,12.40
2017-09-21T00:30:52.159Z,12.40
2017-09-21T00:33:19.761Z,12.40
2017-09-21T00:35:47.404Z,12.40
2017-09-21T00:38:15.167Z,12.50
2017-09-21T00:40:42.774Z,12.50
2017-09-21T00:43:10.388Z,12.50
2017-09-21T00:45:38.188Z,12.50
2017-09-21T00:48:05.805Z,12.50
2017-09-21T00:50:33.417Z,12.50
2017-09-21T00:53:01.084Z,12.50
2017-09-21T00:55:29.467Z,12.50
2017-09-21T00:57:57.073Z,12.40
2017-09-21T01:00:24.766Z,12.40
2017-09-21T01:02:52.379Z,12.40
2017-09-21T01:05:20.743Z,12.40
2017-09-21T01:07:49.171Z,12.40
2017-09-21T01:10:16.780Z,12.40
2017-09-21T01:12:44.381Z,12.40
2017-09-21T01:15:12.050Z,12.30
2017-09-21T01:17:39.665Z,12.30
2017-09-21T01:20:07.273Z,12.30
2017-09-21T01:22:35.061Z,12.30
2017-09-21T01:25:03.523Z,12.30
2017-09-21T01:27:31.331Z,12.30
2017-09-21T01:32:31.823Z,12.30
2017-09-21T01:34:59.588Z,12.30
2017-09-21T01:37:27.205Z,12.30
2017-09-21T01:39:55.579Z,12.20
2017-09-21T01:42:23.247Z,12.20
2017-09-21T01:44:50.864Z,12.20
2017-09-21T01:47:18.477Z,12.20
2017-09-21T01:49:46.148Z,12.20
2017-09-21T01:52:14.509Z,12.20
2017-09-21T01:54:42.894Z,12.20
2017-09-21T01:57:10.761Z,12.20
2017-09-21T01:59:38.361Z,12.20
2017-09-21T02:02:06.722Z,12.10
2017-09-21T02:04:35.161Z,12.20
2017-09-21T02:07:03.542Z,12.10
2017-09-21T02:09:31.909Z,12.10
2017-09-21T02:12:00.523Z,12.10
2017-09-21T02:14:28.130Z,12.10
2017-09-21T02:16:56.498Z,12.10
2017-09-21T02:19:24.273Z,12.10
2017-09-21T02:21:51.874Z,12.10
2017-09-21T02:24:20.255Z,12.10
2017-09-21T02:26:48.035Z,12.10
2017-09-21T02:29:15.634Z,12.10
2017-09-21T02:31:44.003Z,12.00
2017-09-21T02:34:12.440Z,12.00
2017-09-21T02:36:40.042Z,11.90
2017-09-21T02:39:07.740Z,12.00
2017-09-21T02:41:35.404Z,11.90
2017-09-21T02:44:03.785Z,11.90
2017-09-21T02:46:31.403Z,11.90
2017-09-21T02:48:59.829Z,11.90
2017-09-21T02:51:27.425Z,11.90
2017-09-21T02:53:55.044Z,11.90
2017-09-21T02:56:22.708Z,11.90
2017-09-21T02:58:51.084Z,11.90
2017-09-21T03:01:18.684Z,11.90
2017-09-21T03:03:46.507Z,11.90
2017-09-21T03:06:14.102Z,11.90
2017-09-21T03:08:42.470Z,12.00
2017-09-21T03:11:10.892Z,12.00
2017-09-21T03:13:38.653Z,11.90
2017-09-21T03:16:06.253Z,12.00
2017-09-21T03:18:33.937Z,12.00
2017-09-21T03:21:01.547Z,12.00
2017-09-21T03:23:29.163Z,12.00
2017-09-21T03:25:57.582Z,12.10
2017-09-21T03:28:25.181Z,12.00
2017-09-21T03:30:52.797Z,12.10
2017-09-21T03:33:20.472Z,12.10
2017-09-21T03:35:48.083Z,12.10
2017-09-21T03:38:16.340Z,12.10
2017-09-21T03:40:44.159Z,12.10
2017-09-21T03:43:12.679Z,12.10
2017-09-21T03:45:42.949Z,12.10
2017-09-21T03:48:13.359Z,12.10
2017-09-21T03:50:43.499Z,12.10
2017-09-21T03:53:11.394Z,12.20
2017-09-21T03:55:39.003Z,12.10
2017-09-21T03:58:07.371Z,12.20
2017-09-21T04:00:35.233Z,12.10
2017-09-21T04:03:02.839Z,12.10
2017-09-21T04:05:30.461Z,12.10
2017-09-21T04:07:58.814Z,12.10
2017-09-21T04:10:26.488Z,12.20
2017-09-21T04:12:54.100Z,12.20
2017-09-21T04:15:21.741Z,12.20
2017-09-21T04:17:49.588Z,12.20
2017-09-21T04:20:20.377Z,12.20
2017-09-21T04:22:51.878Z,12.20
2017-09-21T04:25:23.551Z,12.20
2017-09-21T04:27:55.450Z,12.20
2017-09-21T04:30:23.279Z,12.20
2017-09-21T04:32:50.895Z,12.20
2017-09-21T04:35:18.768Z,12.20
2017-09-21T04:37:46.383Z,12.20
2017-09-21T04:40:14.000Z,12.20
2017-09-21T04:42:41.766Z,12.20
2017-09-21T04:45:10.126Z,12.20
2017-09-21T04:47:38.500Z,12.20
2017-09-21T04:50:07.100Z,12.20
2017-09-21T04:52:34.707Z,12.20
2017-09-21T04:55:03.078Z,12.20
2017-09-21T04:57:30.749Z,12.20
2017-09-21T04:59:58.360Z,12.20
2017-09-21T05:02:25.980Z,12.20
2017-09-21T05:04:53.656Z,12.20
2017-09-21T05:07:21.277Z,12.20
2017-09-21T05:09:49.657Z,12.30
2017-09-21T05:12:18.082Z,12.30
2017-09-21T05:14:45.700Z,12.30
2017-09-21T05:17:13.309Z,12.30
2017-09-21T05:19:41.760Z,12.30
2017-09-21T05:22:10.141Z,12.30
2017-09-21T05:24:38.785Z,12.30
2017-09-21T05:27:07.214Z,12.30
2017-09-21T05:29:34.836Z,12.30
2017-09-21T05:32:02.451Z,12.30
2017-09-21T05:34:30.891Z,12.40
2017-09-21T05:36:58.498Z,12.30
2017-09-21T05:39:26.106Z,12.40
2017-09-21T05:41:54.523Z,12.40
2017-09-21T05:44:22.134Z,12.40
2017-09-21T05:46:49.738Z,12.40
2017-09-21T05:49:17.387Z,12.40
2017-09-21T05:51:44.990Z,12.40
2017-09-21T05:54:12.608Z,12.50
2017-09-21T05:56:40.492Z,12.50
2017-09-21T05:59:08.096Z,12.50
2017-09-21T06:01:36.484Z,12.60
2017-09-21T06:04:04.290Z,12.60
2017-09-21T06:06:32.668Z,12.70
2017-09-21T06:09:00.389Z,12.70
2017-09-21T06:11:28.048Z,12.70
2017-09-21T06:13:56.413Z,12.80
2017-09-21T06:16:24.818Z,12.80
2017-09-21T06:18:52.475Z,12.70
2017-09-21T06:21:20.096Z,12.80
2017-09-21T06:23:47.721Z,12.80
2017-09-21T06:26:16.142Z,12.90
2017-09-21T06:28:43.774Z,12.90
2017-09-21T06:31:11.388Z,12.90
2017-09-21T06:33:39.058Z,13.00
2017-09-21T06:36:06.662Z,13.00
2017-09-21T06:38:35.038Z,13.10
2017-09-21T06:41:03.484Z,13.10
2017-09-21T06:43:31.862Z,13.20
2017-09-21T06:45:59.491Z,13.20
2017-09-21T06:48:27.923Z,13.30
2017-09-21T06:50:55.544Z,13.30
2017-09-21T06:53:23.158Z,13.40
2017-09-21T06:55:51.590Z,13.50
2017-09-21T06:58:19.240Z,13.50
2017-09-21T07:00:46.876Z,13.60
2017-09-21T07:03:14.539Z,13.70
2017-09-21T07:05:42.146Z,13.80
2017-09-21T07:08:09.743Z,13.90
2017-09-21T07:10:38.173Z,14.10
2017-09-21T07:13:06.565Z,14.20
2017-09-21T07:15:34.196Z,14.20
2017-09-21T07:18:02.624Z,14.50
2017-09-21T07:20:30.226Z,14.50
2017-09-21T07:22:58.610Z,14.80
2017-09-21T07:25:26.275Z,14.80
2017-09-21T07:27:53.903Z,15.00
2017-09-21T07:30:21.500Z,15.10
2017-09-21T07:32:49.313Z,15.30
2017-09-21T07:35:17.732Z,15.40
2017-09-21T07:37:45.856Z,15.50
2017-09-21T07:40:14.422Z,15.50
2017-09-21T07:42:42.037Z,15.50
2017-09-21T07:45:09.660Z,15.50
2017-09-21T07:47:37.539Z,15.50
2017-09-21T07:50:05.143Z,15.60
2017-09-21T07:52:33.527Z,15.80
2017-09-21T07:55:01.218Z,15.80
2017-09-21T07:57:34.557Z,15.80
2017-09-21T08:00:03.062Z,15.80
2017-09-21T08:02:31.236Z,15.70
2017-09-21T08:05:00.164Z,15.70
2017-09-21T08:07:28.835Z,15.70
2017-09-21T08:09:56.517Z,15.70
2017-09-21T08:12:24.115Z,15.70
2017-09-21T08:14:51.776Z,15.60
2017-09-21T08:17:19.379Z,15.70
2017-09-21T08:19:47.743Z,15.90
2017-09-21T08:22:16.154Z,16.20
2017-09-21T08:24:43.753Z,16.20
2017-09-21T08:27:11.375Z,16.50
2017-09-21T08:29:39.804Z,17.10
2017-09-21T08:32:07.419Z,17.10
2017-09-21T08:34:35.010Z,17.40
2017-09-21T08:37:02.660Z,17.60
2017-09-21T08:39:30.271Z,17.60
2017-09-21T08:41:57.875Z,17.60
2017-09-21T08:44:26.291Z,17.80
2017-09-21T08:46:53.896Z,17.70
2017-09-21T08:49:21.494Z,18.00
2017-09-21T08:51:49.145Z,18.30
2017-09-21T08:54:18.262Z,18.70
2017-09-21T08:56:45.863Z,18.70
2017-09-21T08:59:13.526Z,18.80
2017-09-21T09:01:41.136Z,18.90
2017-09-21T09:04:08.730Z,19.00
2017-09-21T09:06:37.295Z,18.70
2017-09-21T09:09:05.664Z,18.70
2017-09-21T09:11:34.043Z,18.70
2017-09-21T09:14:01.682Z,18.60
2017-09-21T09:16:30.190Z,18.60
2017-09-21T09:18:57.860Z,18.70
2017-09-21T09:21:25.511Z,18.90
2017-09-21T09:23:53.111Z,19.10
2017-09-21T09:26:20.721Z,19.30
2017-09-21T09:28:50.849Z,19.50
2017-09-21T09:31:18.450Z,19.50
2017-09-21T09:33:46.833Z,19.50
2017-09-21T09:36:14.504Z,19.40
2017-09-21T09:38:42.113Z,19.40
2017-09-21T09:41:10.475Z,19.30
2017-09-21T09:43:39.075Z,19.30
2017-09-21T09:46:06.720Z,19.30
2017-09-21T09:48:34.456Z,19.30
2017-09-21T09:51:02.198Z,19.50
2017-09-21T09:53:29.861Z,19.50
2017-09-21T09:55:57.495Z,19.60
2017-09-21T09:58:25.373Z,19.80
2017-09-21T10:00:52.988Z,19.80
2017-09-21T10:03:20.600Z,19.70
2017-09-21T10:05:48.251Z,19.70
2017-09-21T10:08:16.495Z,19.50
2017-09-21T10:10:44.905Z,19.50
2017-09-21T10:13:12.765Z,19.50
2017-09-21T10:15:40.385Z,19.50
2017-09-21T10:18:09.468Z,19.60
2017-09-21T10:20:38.132Z,19.60
2017-09-21T10:23:07.078Z,19.70
2017-09-21T10:25:34.674Z,19.60
2017-09-21T10:28:02.321Z,19.70
2017-09-21T10:30:29.934Z,19.70
2017-09-21T10:33:00.134Z,20.00
2017-09-21T10:35:28.670Z,20.00
2017-09-21T10:37:56.271Z,20.00
2017-09-21T10:40:23.881Z,20.10
2017-09-21T10:42:51.548Z,20.00
2017-09-21T10:45:19.935Z,20.00
2017-09-21T10:47:47.527Z,20.00
2017-09-21T10:50:15.360Z,19.90
2017-09-21T10:52:42.972Z,19.80
2017-09-21T10:55:11.381Z,19.80
2017-09-21T10:57:39.196Z,19.90
2017-09-21T11:00:06.801Z,20.00
2017-09-21T11:02:35.177Z,20.20
2017-09-21T11:05:02.928Z,20.20
2017-09-21T11:07:30.561Z,20.10
2017-09-21T11:09:58.925Z,20.20
2017-09-21T11:12:27.453Z,20.30
2017-09-21T11:14:55.075Z,20.20
2017-09-21T11:17:22.694Z,20.30
2017-09-21T11:19:50.364Z,20.30
2017-09-21T11:22:17.962Z,20.20
2017-09-21T11:24:46.348Z,20.00
2017-09-21T11:27:14.209Z,20.00
2017-09-21T11:29:41.805Z,19.90
2017-09-21T11:32:09.424Z,19.80
2017-09-21T11:34:37.074Z,19.70
2017-09-21T11:37:04.677Z,19.60
2017-09-21T11:39:32.280Z,19.60
2017-09-21T11:42:00.035Z,19.50
2017-09-21T11:44:27.694Z,19.50
2017-09-21T11:46:56.064Z,19.50
2017-09-21T11:49:24.508Z,19.60
2017-09-21T11:51:52.110Z,19.50
2017-09-21T11:54:19.725Z,19.70
2017-09-21T11:56:47.494Z,19.70
2017-09-21T11:59:15.113Z,19.80
2017-09-21T12:01:45.643Z,19.80
2017-09-21T12:04:14.306Z,19.80
2017-09-21T12:06:42.895Z,19.80
2017-09-21T12:09:10.504Z,19.80
2017-09-21T12:11:38.930Z,20.10
2017-09-21T12:14:06.530Z,20.10
2017-09-21T12:16:34.140Z,20.20
2017-09-21T12:19:01.922Z,20.20
2017-09-21T12:21:29.518Z,20.40
2017-09-21T12:23:57.138Z,20.50
2017-09-21T12:26:24.786Z,20.50
2017-09-21T12:28:52.406Z,20.30
2017-09-21T12:31:20.007Z,20.20
2017-09-21T12:33:48.523Z,20.20
2017-09-21T12:36:16.127Z,20.20
2017-09-21T12:38:44.509Z,20.30
2017-09-21T12:41:12.243Z,20.30
2017-09-21T12:43:40.602Z,20.20
2017-09-21T12:46:08.976Z,20.20
2017-09-21T12:48:37.402Z,20.20
2017-09-21T12:51:05.024Z,20.10
2017-09-21T12:53:32.636Z,20.20
2017-09-21T12:56:00.393Z,20.20
2017-09-21T12:58:28.005Z,20.10
2017-09-21T13:00:55.612Z,20.10
2017-09-21T13:03:23.280Z,20.20
2017-09-21T13:05:50.902Z,20.20
2017-09-21T13:08:18.512Z,20.30
2017-09-21T13:10:46.187Z,20.30
2017-09-21T13:13:13.800Z,20.20
2017-09-21T13:15:41.402Z,20.20
2017-09-21T13:18:09.164Z,20.40
2017-09-21T13:20:36.774Z,20.60
2017-09-21T13:23:04.408Z,20.90
2017-09-21T13:25:32.162Z,21.10
2017-09-21T13:27:59.772Z,21.20
2017-09-21T13:30:27.374Z,21.20
2017-09-21T13:32:55.060Z,21.20
2017-09-21T13:35:23.426Z,20.90
2017-09-21T13:37:51.037Z,20.90
2017-09-21T13:40:18.708Z,21.00
2017-09-21T13:42:47.090Z,20.90
2017-09-21T13:45:14.701Z,20.90
2017-09-21T13:47:42.346Z,20.90
2017-09-21T13:50:10.720Z,20.70
2017-09-21T13:52:39.104Z,20.50
2017-09-21T13:55:06.978Z,20.50
2017-09-21T13:57:34.598Z,20.40
2017-09-21T14:00:02.209Z,20.30
2017-09-21T14:02:29.955Z,20.20
2017-09-21T14:04:57.568Z,20.10
2017-09-21T14:07:25.208Z,20.10
2017-09-21T14:09:53.042Z,20.00
2017-09-21T14:12:21.527Z,19.90
2017-09-21T14:14:49.118Z,19.80
2017-09-21T14:17:17.630Z,19.70
2017-09-21T14:19:45.218Z,19.70
2017-09-21T14:22:13.582Z,19.60
2017-09-21T14:24:42.002Z,19.70
2017-09-21T14:27:10.440Z,19.70
2017-09-21T14:29:38.035Z,19.70
2017-09-21T14:32:05.847Z,19.70
2017-09-21T14:34:33.459Z,19.70
2017-09-21T14:37:01.845Z,19.60
2017-09-21T14:39:29.529Z,19.50
2017-09-21T14:41:57.130Z,19.60
2017-09-21T14:44:24.756Z,19.50
2017-09-21T14:46:53.173Z,19.30
2017-09-21T14:49:20.774Z,19.30
2017-09-21T14:51:48.420Z,19.20
2017-09-21T14:54:16.942Z,19.10
2017-09-21T14:56:44.605Z,19.10
2017-09-21T14:59:12.468Z,19.00
2017-09-21T15:01:40.890Z,18.90
2017-09-21T15:04:08.509Z,18.90
2017-09-21T15:06:36.126Z,18.80
2017-09-21T15:09:04.542Z,18.70
2017-09-21T15:11:32.151Z,18.70
2017-09-21T15:13:59.770Z,18.60
2017-09-21T15:16:28.220Z,18.50
2017-09-21T15:18:55.825Z,18.50
2017-09-21T15:21:23.432Z,18.50
2017-09-21T15:23:51.905Z,18.40
2017-09-21T15:26:19.520Z,18.40
2017-09-21T15:28:47.127Z,18.30
2017-09-21T15:31:14.804Z,18.30
2017-09-21T15:33:42.437Z,18.30
2017-09-21T15:36:10.041Z,18.20
2017-09-21T15:38:37.701Z,18.20
2017-09-21T15:41:05.340Z,18.20
2017-09-21T15:43:32.947Z,18.20
2017-09-21T15:46:01.472Z,18.10
2017-09-21T15:48:29.065Z,18.10
2017-09-21T15:50:57.430Z,18.00
2017-09-21T15:53:25.848Z,18.00
2017-09-21T15:55:53.454Z,18.00
2017-09-21T15:58:21.046Z,18.00
2017-09-21T16:00:48.694Z,17.90
2017-09-21T16:03:16.299Z,17.90
2017-09-21T16:05:45.276Z,17.80
2017-09-21T16:08:13.167Z,17.80
2017-09-21T16:10:40.789Z,17.80
2017-09-21T16:13:08.386Z,17.70
2017-09-21T16:15:36.920Z,17.70
2017-09-21T16:18:04.534Z,17.70
2017-09-21T16:20:32.133Z,17.60
2017-09-21T16:23:02.062Z,17.60
2017-09-21T16:25:29.705Z,17.60
2017-09-21T16:27:57.303Z,17.50
2017-09-21T16:30:24.958Z,17.50
2017-09-21T16:32:52.554Z,17.50
2017-09-21T16:35:20.192Z,17.50
2017-09-21T16:37:47.844Z,17.50
2017-09-21T16:40:15.832Z,17.40
2017-09-21T16:42:43.579Z,17.40
2017-09-21T16:45:11.393Z,17.40
2017-09-21T16:47:38.990Z,17.40
2017-09-21T16:50:06.624Z,17.40
2017-09-21T16:52:34.545Z,17.30
2017-09-21T16:55:02.152Z,17.30
2017-09-21T16:57:30.528Z,17.20
2017-09-21T16:59:58.178Z,17.20
2017-09-21T17:02:25.782Z,17.20
2017-09-21T17:04:54.179Z,17.00
2017-09-21T17:07:21.857Z,17.00
2017-09-21T17:09:49.928Z,16.90
2017-09-21T17:12:17.549Z,16.80
2017-09-21T17:14:45.465Z,16.80
2017-09-21T17:17:13.901Z,16.70
2017-09-21T17:19:41.551Z,16.60
2017-09-21T17:22:09.254Z,16.60
2017-09-21T17:24:36.860Z,16.60
2017-09-21T17:27:04.473Z,16.50
2017-09-21T17:29:32.136Z,16.40
2017-09-21T17:31:59.738Z,16.40
2017-09-21T17:34:27.367Z,16.30
2017-09-21T17:36:55.132Z,16.30
2017-09-21T17:39:22.740Z,16.20
2017-09-21T17:41:51.112Z,16.10
2017-09-21T17:44:18.763Z,16.10
2017-09-21T17:46:46.358Z,16.10
2017-09-21T17:49:14.764Z,16.00
2017-09-21T17:51:42.421Z,16.00
2017-09-21T17:54:10.106Z,16.00
2017-09-21T17:56:37.720Z,15.90
2017-09-21T17:59:05.565Z,15.90
2017-09-21T18:01:33.180Z,15.90
2017-09-21T18:04:01.543Z,15.90
2017-09-21T18:06:29.966Z,15.80
2017-09-21T18:08:57.562Z,15.80
2017-09-21T18:11:25.272Z,15.80
2017-09-21T18:13:53.027Z,15.70
2017-09-21T18:16:20.836Z,15.70
2017-09-21T18:18:48.438Z,15.70
2017-09-21T18:21:18.485Z,15.70
2017-09-21T18:23:47.891Z,15.70
2017-09-21T18:26:18.188Z,15.60
2017-09-21T18:28:46.700Z,15.60
2017-09-21T18:31:15.071Z,15.70
2017-09-21T18:33:42.813Z,15.60
2017-09-21T18:36:11.172Z,15.60
2017-09-21T18:38:38.770Z,15.60
2017-09-21T18:41:07.109Z,15.60
2017-09-21T18:43:35.020Z,15.60
2017-09-21T18:46:02.688Z,15.60
2017-09-21T18:48:30.468Z,15.60
2017-09-21T18:50:58.667Z,15.60
2017-09-21T18:53:26.378Z,15.60
2017-09-21T18:55:54.369Z,15.60
2017-09-21T18:58:22.113Z,15.60
2017-09-21T19:00:50.345Z,15.60
2017-09-21T19:03:18.230Z,15.50
2017-09-21T19:05:45.990Z,15.50
2017-09-21T19:08:13.928Z,15.50
2017-09-21T19:10:42.129Z,15.50
2017-09-21T19:13:10.227Z,15.50
2017-09-21T19:15:37.952Z,15.50
2017-09-21T19:18:05.684Z,15.50
2017-09-21T19:20:33.739Z,15.40
2017-09-21T19:23:01.596Z,15.50
2017-09-21T19:25:29.506Z,15.50
2017-09-21T19:27:59.190Z,15.40
2017-09-21T19:30:26.910Z,15.50
2017-09-21T19:32:54.568Z,15.50
2017-09-21T19:35:22.192Z,15.50
2017-09-21T19:37:49.803Z,15.50
2017-09-21T19:40:17.458Z,15.50
2017-09-21T19:42:45.072Z,15.50
2017-09-21T19:45:13.453Z,15.50
2017-09-21T19:47:41.297Z,15.50
2017-09-21T19:50:08.899Z,15.50
2017-09-21T19:52:36.516Z,15.50
2017-09-21T19:55:04.187Z,15.50
2017-09-21T19:57:31.796Z,15.50
2017-09-21T19:59:59.408Z,15.50
2017-09-21T20:02:27.849Z,15.50
2017-09-21T20:04:55.465Z,15.50
2017-09-21T20:07:23.082Z,15.50
2017-09-21T20:09:50.849Z,15.50
2017-09-21T20:12:18.457Z,15.50
2017-09-21T20:14:46.836Z,15.50
2017-09-21T20:17:14.610Z,15.50
2017-09-21T20:19:42.220Z,15.50
2017-09-21T20:22:09.839Z,15.50
2017-09-21T20:24:37.754Z,15.40
2017-09-21T20:27:05.998Z,15.40
2017-09-21T20:29:33.612Z,15.40
2017-09-21T20:32:02.246Z,15.40
2017-09-21T20:34:31.457Z,15.40
2017-09-21T20:36:59.840Z,15.40
2017-09-21T20:39:27.508Z,15.40
2017-09-21T20:41:55.944Z,15.30
2017-09-21T20:44:23.548Z,15.30
2017-09-21T20:46:51.197Z,15.30
2017-09-21T20:49:18.798Z,15.30
2017-09-21T20:51:46.421Z,15.20
2017-09-21T20:54:14.771Z,15.20
2017-09-21T20:56:43.149Z,15.20
2017-09-21T20:59:10.758Z,15.20
2017-09-21T21:01:38.533Z,15.20
2017-09-21T21:04:06.897Z,15.20
2017-09-21T21:06:35.268Z,15.20
2017-09-21T21:09:02.934Z,15.20
2017-09-21T21:11:30.538Z,15.20
2017-09-21T21:13:58.912Z,15.20
2017-09-21T21:16:27.343Z,15.20
2017-09-21T21:18:57.759Z,15.10
2017-09-21T21:21:25.364Z,15.10
2017-09-21T21:23:54.046Z,15.10
2017-09-21T21:26:21.649Z,15.10
2017-09-21T21:28:49.251Z,15.10
2017-09-21T21:31:18.022Z,15.10
2017-09-21T21:33:45.634Z,15.20
2017-09-21T21:36:13.247Z,15.10
2017-09-21T21:38:41.669Z,15.10
2017-09-21T21:41:09.266Z,15.10
2017-09-21T21:43:36.875Z,15.10
2017-09-21T21:46:04.560Z,15.10
2017-09-21T21:48:32.176Z,15.10
2017-09-21T21:50:59.787Z,15.10
2017-09-21T21:53:27.451Z,15.10
2017-09-21T21:55:55.058Z,15.20
2017-09-21T21:58:22.672Z,15.20
2017-09-21T22:01:05.986Z,15.10
2017-09-21T22:03:34.144Z,15.10
2017-09-21T22:06:02.506Z,15.10
2017-09-21T22:08:31.031Z,15.10
2017-09-21T22:10:59.564Z,15.10
2017-09-21T22:13:27.162Z,15.10
2017-09-21T22:15:54.922Z,15.10
2017-09-21T22:18:23.304Z,15.10
2017-09-21T22:20:50.891Z,15.10
2017-09-21T22:23:18.542Z,15.10
2017-09-21T22:25:46.155Z,15.10
2017-09-21T22:28:13.957Z,15.10
2017-09-21T22:30:42.375Z,15.10
2017-09-21T22:33:09.986Z,15.10
2017-09-21T22:35:39.052Z,15.10
2017-09-21T22:38:07.579Z,15.10
2017-09-21T22:40:38.065Z,15.10
2017-09-21T22:43:07.708Z,15.10
2017-09-21T22:45:35.298Z,15.10
2017-09-21T22:48:02.895Z,15.10
2017-09-21T22:50:33.533Z,15.10
2017-09-21T22:53:01.894Z,15.10
2017-09-21T22:55:29.499Z,15.10
2017-09-21T22:57:58.196Z,15.10
2017-09-21T23:00:26.639Z,15.10
2017-09-21T23:02:54.234Z,15.10
2017-09-21T23:05:21.889Z,15.10
2017-09-21T23:07:52.112Z,15.10
2017-09-21T23:10:19.728Z,15.10
2017-09-21T23:12:47.392Z,15.10
2017-09-21T23:15:14.996Z,15.10
2017-09-21T23:17:43.359Z,15.10
2017-09-21T23:20:11.778Z,15.10
2017-09-21T23:22:39.395Z,15.10
2017-09-21T23:25:07.008Z,15.10
2017-09-21T23:27:35.418Z,15.10
2017-09-21T23:30:06.778Z,15.10
2017-09-21T23:32:34.388Z,15.00
2017-09-21T23:35:02.174Z,15.00
2017-09-21T23:37:29.774Z,15.00
2017-09-21T23:39:57.366Z,15.00
2017-09-21T23:42:25.029Z,15.10
2017-09-21T23:44:53.400Z,15.10
2017-09-21T23:47:22.984Z,15.00
2017-09-21T23:49:53.231Z,15.00
2017-09-21T23:52:20.837Z,15.00
2017-09-21T23:54:49.221Z,15.10
2017-09-21T23:57:16.872Z,15.10
2017-09-21T23:59:44.461Z,15.10
